sensor_id;sensor_type;location;lat;lon;timestamp;P1;durP1;ratioP1;P2;durP2;ratioP2
73170;SDS011;61381;50.118;19.962;2024-03-02T00:00:37;43.90;;;19.80;;
73170;SDS011;61381;50.118;19.962;2024-03-02T00:05:58;43.83;;;21.77;;
73170;SDS011;61381;50.118;19.962;2024-03-02T00:11:00;37.00;;;18.20;;
73170;SDS011;61381;50.118;19.962;2024-03-02T00:16:03;33.03;;;15.65;;
73170;SDS011;61381;50.118;19.962;2024-03-02T00:21:05;47.35;;;21.50;;
73170;SDS011;61381;50.118;19.962;2024-03-02T00:26:07;45.95;;;20.45;;
73170;SDS011;61381;50.118;19.962;2024-03-02T00:31:13;51.28;;;24.45;;
73170;SDS011;61381;50.118;19.962;2024-03-02T00:36:15;44.58;;;21.85;;
73170;SDS011;61381;50.118;19.962;2024-03-02T00:41:22;36.95;;;17.25;;
73170;SDS011;61381;50.118;19.962;2024-03-02T00:46:27;42.05;;;19.38;;
73170;SDS011;61381;50.118;19.962;2024-03-02T00:51:29;52.22;;;25.35;;
73170;SDS011;61381;50.118;19.962;2024-03-02T00:56:31;41.45;;;21.15;;
73170;SDS011;61381;50.118;19.962;2024-03-02T01:01:34;41.22;;;19.33;;
73170;SDS011;61381;50.118;19.962;2024-03-02T01:06:35;49.00;;;21.85;;
73170;SDS011;61381;50.118;19.962;2024-03-02T01:11:36;48.72;;;22.30;;
73170;SDS011;61381;50.118;19.962;2024-03-02T01:16:38;38.63;;;20.00;;
73170;SDS011;61381;50.118;19.962;2024-03-02T01:21:39;35.80;;;18.02;;
73170;SDS011;61381;50.118;19.962;2024-03-02T01:26:40;42.50;;;18.98;;
73170;SDS011;61381;50.118;19.962;2024-03-02T01:31:42;41.40;;;20.10;;
73170;SDS011;61381;50.118;19.962;2024-03-02T01:36:43;38.00;;;18.70;;
73170;SDS011;61381;50.118;19.962;2024-03-02T01:41:44;41.72;;;20.70;;
73170;SDS011;61381;50.118;19.962;2024-03-02T01:46:46;49.88;;;23.35;;
73170;SDS011;61381;50.118;19.962;2024-03-02T01:51:47;50.20;;;22.88;;
73170;SDS011;61381;50.118;19.962;2024-03-02T01:56:48;32.47;;;15.88;;
73170;SDS011;61381;50.118;19.962;2024-03-02T02:01:50;44.30;;;20.65;;
73170;SDS011;61381;50.118;19.962;2024-03-02T02:06:51;44.80;;;18.92;;
73170;SDS011;61381;50.118;19.962;2024-03-02T02:11:52;40.33;;;18.95;;
73170;SDS011;61381;50.118;19.962;2024-03-02T02:16:54;34.22;;;16.40;;
73170;SDS011;61381;50.118;19.962;2024-03-02T02:21:56;47.60;;;21.85;;
73170;SDS011;61381;50.118;19.962;2024-03-02T02:26:57;45.45;;;21.58;;
73170;SDS011;61381;50.118;19.962;2024-03-02T02:31:58;46.10;;;22.08;;
73170;SDS011;61381;50.118;19.962;2024-03-02T02:37:00;46.58;;;21.80;;
73170;SDS011;61381;50.118;19.962;2024-03-02T02:42:02;37.78;;;17.60;;
73170;SDS011;61381;50.118;19.962;2024-03-02T02:47:03;42.30;;;18.70;;
73170;SDS011;61381;50.118;19.962;2024-03-02T02:52:05;39.95;;;19.00;;
73170;SDS011;61381;50.118;19.962;2024-03-02T02:57:06;45.28;;;21.23;;
73170;SDS011;61381;50.118;19.962;2024-03-02T03:02:07;38.42;;;19.02;;
73170;SDS011;61381;50.118;19.962;2024-03-02T03:12:10;40.92;;;17.10;;
73170;SDS011;61381;50.118;19.962;2024-03-02T03:17:11;42.08;;;18.77;;
73170;SDS011;61381;50.118;19.962;2024-03-02T03:22:13;41.72;;;20.15;;
73170;SDS011;61381;50.118;19.962;2024-03-02T03:27:14;27.58;;;14.25;;
73170;SDS011;61381;50.118;19.962;2024-03-02T03:32:14;31.40;;;15.18;;
73170;SDS011;61381;50.118;19.962;2024-03-02T03:37:17;39.88;;;20.52;;
73170;SDS011;61381;50.118;19.962;2024-03-02T03:42:17;38.10;;;18.23;;
73170;SDS011;61381;50.118;19.962;2024-03-02T03:47:18;36.85;;;16.20;;
73170;SDS011;61381;50.118;19.962;2024-03-02T03:52:20;43.30;;;20.52;;
73170;SDS011;61381;50.118;19.962;2024-03-02T03:57:21;39.60;;;18.75;;
73170;SDS011;61381;50.118;19.962;2024-03-02T04:02:22;45.67;;;19.45;;
73170;SDS011;61381;50.118;19.962;2024-03-02T04:07:24;45.42;;;21.15;;
73170;SDS011;61381;50.118;19.962;2024-03-02T04:12:25;42.28;;;19.83;;
73170;SDS011;61381;50.118;19.962;2024-03-02T04:17:26;45.90;;;19.65;;
73170;SDS011;61381;50.118;19.962;2024-03-02T04:22:28;45.13;;;21.05;;
73170;SDS011;61381;50.118;19.962;2024-03-02T04:27:29;48.38;;;20.70;;
73170;SDS011;61381;50.118;19.962;2024-03-02T04:37:33;48.10;;;20.88;;
73170;SDS011;61381;50.118;19.962;2024-03-02T04:42:35;46.90;;;20.42;;
73170;SDS011;61381;50.118;19.962;2024-03-02T04:52:38;52.38;;;22.23;;
73170;SDS011;61381;50.118;19.962;2024-03-02T04:57:39;46.50;;;19.27;;
73170;SDS011;61381;50.118;19.962;2024-03-02T05:07:41;43.72;;;18.92;;
73170;SDS011;61381;50.118;19.962;2024-03-02T05:12:42;78.13;;;33.80;;
73170;SDS011;61381;50.118;19.962;2024-03-02T05:22:45;48.35;;;19.42;;
73170;SDS011;61381;50.118;19.962;2024-03-02T05:27:46;41.42;;;17.45;;
73170;SDS011;61381;50.118;19.962;2024-03-02T05:32:47;40.15;;;18.48;;
73170;SDS011;61381;50.118;19.962;2024-03-02T05:37:49;57.15;;;26.90;;
73170;SDS011;61381;50.118;19.962;2024-03-02T05:42:50;64.72;;;29.75;;
73170;SDS011;61381;50.118;19.962;2024-03-02T05:47:51;38.63;;;18.02;;
73170;SDS011;61381;50.118;19.962;2024-03-02T05:52:53;62.53;;;22.70;;
73170;SDS011;61381;50.118;19.962;2024-03-02T05:57:54;42.05;;;18.95;;
73170;SDS011;61381;50.118;19.962;2024-03-02T06:02:55;46.63;;;21.17;;
73170;SDS011;61381;50.118;19.962;2024-03-02T06:07:57;41.22;;;20.20;;
73170;SDS011;61381;50.118;19.962;2024-03-02T06:12:58;40.50;;;18.42;;
73170;SDS011;61381;50.118;19.962;2024-03-02T06:17:59;25.90;;;12.82;;
73170;SDS011;61381;50.118;19.962;2024-03-02T06:23:01;38.17;;;17.67;;
73170;SDS011;61381;50.118;19.962;2024-03-02T06:28:02;56.67;;;26.83;;
73170;SDS011;61381;50.118;19.962;2024-03-02T06:33:03;47.55;;;23.65;;
73170;SDS011;61381;50.118;19.962;2024-03-02T06:38:06;44.58;;;19.80;;
73170;SDS011;61381;50.118;19.962;2024-03-02T06:43:07;41.15;;;19.15;;
73170;SDS011;61381;50.118;19.962;2024-03-02T06:48:07;45.05;;;17.65;;
73170;SDS011;61381;50.118;19.962;2024-03-02T06:53:10;38.08;;;17.85;;
73170;SDS011;61381;50.118;19.962;2024-03-02T06:58:10;40.28;;;17.40;;
73170;SDS011;61381;50.118;19.962;2024-03-02T07:03:11;39.60;;;18.33;;
73170;SDS011;61381;50.118;19.962;2024-03-02T07:08:15;36.60;;;16.73;;
73170;SDS011;61381;50.118;19.962;2024-03-02T07:13:15;42.80;;;19.25;;
73170;SDS011;61381;50.118;19.962;2024-03-02T07:18:16;47.10;;;21.10;;
73170;SDS011;61381;50.118;19.962;2024-03-02T07:23:18;25.25;;;13.35;;
73170;SDS011;61381;50.118;19.962;2024-03-02T07:28:19;35.15;;;16.48;;
73170;SDS011;61381;50.118;19.962;2024-03-02T07:33:20;28.02;;;14.38;;
73170;SDS011;61381;50.118;19.962;2024-03-02T07:38:23;37.70;;;18.00;;
73170;SDS011;61381;50.118;19.962;2024-03-02T07:43:23;36.03;;;15.65;;
73170;SDS011;61381;50.118;19.962;2024-03-02T07:48:24;34.55;;;15.73;;
73170;SDS011;61381;50.118;19.962;2024-03-02T07:53:27;33.13;;;15.27;;
73170;SDS011;61381;50.118;19.962;2024-03-02T07:58:28;34.67;;;15.13;;
73170;SDS011;61381;50.118;19.962;2024-03-02T08:03:29;39.17;;;19.38;;
73170;SDS011;61381;50.118;19.962;2024-03-02T08:08:31;34.08;;;16.73;;
73170;SDS011;61381;50.118;19.962;2024-03-02T08:13:32;39.42;;;20.55;;
73170;SDS011;61381;50.118;19.962;2024-03-02T08:18:34;41.92;;;20.50;;
73170;SDS011;61381;50.118;19.962;2024-03-02T08:23:36;33.03;;;18.63;;
73170;SDS011;61381;50.118;19.962;2024-03-02T08:28:37;34.97;;;17.35;;
73170;SDS011;61381;50.118;19.962;2024-03-02T08:33:38;43.13;;;20.40;;
73170;SDS011;61381;50.118;19.962;2024-03-02T08:38:40;37.50;;;18.17;;
73170;SDS011;61381;50.118;19.962;2024-03-02T08:43:41;38.00;;;19.90;;
73170;SDS011;61381;50.118;19.962;2024-03-02T08:48:43;37.58;;;17.73;;
73170;SDS011;61381;50.118;19.962;2024-03-02T08:53:45;36.22;;;17.00;;
73170;SDS011;61381;50.118;19.962;2024-03-02T08:58:46;34.17;;;17.05;;
73170;SDS011;61381;50.118;19.962;2024-03-02T09:03:47;38.50;;;17.70;;
73170;SDS011;61381;50.118;19.962;2024-03-02T09:08:49;37.13;;;18.20;;
73170;SDS011;61381;50.118;19.962;2024-03-02T09:13:50;39.92;;;20.52;;
73170;SDS011;61381;50.118;19.962;2024-03-02T09:18:51;40.92;;;20.90;;
73170;SDS011;61381;50.118;19.962;2024-03-02T09:23:53;37.40;;;19.45;;
73170;SDS011;61381;50.118;19.962;2024-03-02T09:28:54;35.03;;;16.50;;
73170;SDS011;61381;50.118;19.962;2024-03-02T09:33:55;40.70;;;18.27;;
73170;SDS011;61381;50.118;19.962;2024-03-02T09:38:57;36.17;;;17.77;;
73170;SDS011;61381;50.118;19.962;2024-03-02T09:43:58;30.75;;;15.82;;
73170;SDS011;61381;50.118;19.962;2024-03-02T09:49:00;36.58;;;17.42;;
73170;SDS011;61381;50.118;19.962;2024-03-02T09:54:02;32.97;;;16.45;;
73170;SDS011;61381;50.118;19.962;2024-03-02T09:59:03;34.38;;;16.90;;
73170;SDS011;61381;50.118;19.962;2024-03-02T10:04:04;34.05;;;17.25;;
73170;SDS011;61381;50.118;19.962;2024-03-02T10:09:07;27.90;;;16.15;;
73170;SDS011;61381;50.118;19.962;2024-03-02T10:14:08;30.15;;;15.70;;
73170;SDS011;61381;50.118;19.962;2024-03-02T10:19:16;31.60;;;16.35;;
73170;SDS011;61381;50.118;19.962;2024-03-02T10:24:19;34.03;;;16.25;;
73170;SDS011;61381;50.118;19.962;2024-03-02T10:29:22;35.13;;;17.35;;
73170;SDS011;61381;50.118;19.962;2024-03-02T10:34:22;34.67;;;17.77;;
73170;SDS011;61381;50.118;19.962;2024-03-02T10:39:25;37.63;;;19.20;;
73170;SDS011;61381;50.118;19.962;2024-03-02T10:44:26;33.08;;;16.10;;
73170;SDS011;61381;50.118;19.962;2024-03-02T10:49:28;34.22;;;16.52;;
73170;SDS011;61381;50.118;19.962;2024-03-02T10:54:31;28.52;;;16.08;;
73170;SDS011;61381;50.118;19.962;2024-03-02T10:59:33;29.42;;;14.57;;
73170;SDS011;61381;50.118;19.962;2024-03-02T11:04:34;28.85;;;14.63;;
73170;SDS011;61381;50.118;19.962;2024-03-02T11:09:39;33.00;;;17.10;;
73170;SDS011;61381;50.118;19.962;2024-03-02T11:14:42;29.42;;;14.90;;
73170;SDS011;61381;50.118;19.962;2024-03-02T11:19:43;29.23;;;14.93;;
73170;SDS011;61381;50.118;19.962;2024-03-02T11:24:49;29.05;;;15.98;;
73170;SDS011;61381;50.118;19.962;2024-03-02T11:34:51;27.85;;;14.48;;
73170;SDS011;61381;50.118;19.962;2024-03-02T11:39:54;28.27;;;15.93;;
73170;SDS011;61381;50.118;19.962;2024-03-02T11:44:55;27.52;;;14.50;;
73170;SDS011;61381;50.118;19.962;2024-03-02T11:49:57;27.92;;;15.13;;
73170;SDS011;61381;50.118;19.962;2024-03-02T11:55:00;33.17;;;17.27;;
73170;SDS011;61381;50.118;19.962;2024-03-02T12:00:04;32.42;;;16.25;;
73170;SDS011;61381;50.118;19.962;2024-03-02T12:05:06;38.22;;;18.77;;
73170;SDS011;61381;50.118;19.962;2024-03-02T12:10:11;37.47;;;18.75;;
73170;SDS011;61381;50.118;19.962;2024-03-02T12:15:11;40.05;;;18.70;;
73170;SDS011;61381;50.118;19.962;2024-03-02T12:20:12;38.67;;;18.83;;
73170;SDS011;61381;50.118;19.962;2024-03-02T12:25:15;34.22;;;18.48;;
73170;SDS011;61381;50.118;19.962;2024-03-02T12:30:16;34.95;;;19.33;;
73170;SDS011;61381;50.118;19.962;2024-03-02T12:35:17;34.70;;;17.60;;
73170;SDS011;61381;50.118;19.962;2024-03-02T12:40:20;33.40;;;17.92;;
73170;SDS011;61381;50.118;19.962;2024-03-02T12:45:21;28.23;;;16.42;;
73170;SDS011;61381;50.118;19.962;2024-03-02T12:50:22;35.17;;;18.00;;
73170;SDS011;61381;50.118;19.962;2024-03-02T12:55:25;31.67;;;17.27;;
73170;SDS011;61381;50.118;19.962;2024-03-02T13:00:26;28.30;;;14.85;;
73170;SDS011;61381;50.118;19.962;2024-03-02T13:05:29;30.55;;;16.58;;
73170;SDS011;61381;50.118;19.962;2024-03-02T13:10:32;28.42;;;15.98;;
73170;SDS011;61381;50.118;19.962;2024-03-02T13:15:33;33.60;;;17.42;;
73170;SDS011;61381;50.118;19.962;2024-03-02T13:20:33;33.38;;;18.05;;
73170;SDS011;61381;50.118;19.962;2024-03-02T13:25:36;35.45;;;19.08;;
73170;SDS011;61381;50.118;19.962;2024-03-02T13:30:37;34.65;;;17.67;;
73170;SDS011;61381;50.118;19.962;2024-03-02T13:35:37;29.48;;;16.20;;
73170;SDS011;61381;50.118;19.962;2024-03-02T13:40:40;28.60;;;16.67;;
73170;SDS011;61381;50.118;19.962;2024-03-02T13:45:41;32.10;;;16.73;;
73170;SDS011;61381;50.118;19.962;2024-03-02T13:50:42;27.08;;;15.38;;
73170;SDS011;61381;50.118;19.962;2024-03-02T13:55:44;31.55;;;16.95;;
73170;SDS011;61381;50.118;19.962;2024-03-02T14:00:45;30.52;;;15.32;;
73170;SDS011;61381;50.118;19.962;2024-03-02T14:05:46;28.08;;;14.52;;
73170;SDS011;61381;50.118;19.962;2024-03-02T14:10:48;33.03;;;16.30;;
73170;SDS011;61381;50.118;19.962;2024-03-02T14:15:49;28.80;;;16.10;;
73170;SDS011;61381;50.118;19.962;2024-03-02T14:20:50;33.15;;;15.48;;
73170;SDS011;61381;50.118;19.962;2024-03-02T14:25:52;33.50;;;15.07;;
73170;SDS011;61381;50.118;19.962;2024-03-02T14:30:53;31.55;;;15.68;;
73170;SDS011;61381;50.118;19.962;2024-03-02T14:35:54;27.85;;;14.85;;
73170;SDS011;61381;50.118;19.962;2024-03-02T14:40:56;30.65;;;16.35;;
73170;SDS011;61381;50.118;19.962;2024-03-02T14:45:57;32.30;;;17.13;;
73170;SDS011;61381;50.118;19.962;2024-03-02T14:50:59;31.00;;;16.90;;
73170;SDS011;61381;50.118;19.962;2024-03-02T14:56:01;35.47;;;19.48;;
73170;SDS011;61381;50.118;19.962;2024-03-02T15:01:03;42.47;;;23.15;;
73170;SDS011;61381;50.118;19.962;2024-03-02T15:06:04;50.97;;;25.17;;
73170;SDS011;61381;50.118;19.962;2024-03-02T15:11:07;46.42;;;24.30;;
73170;SDS011;61381;50.118;19.962;2024-03-02T15:16:08;44.00;;;23.40;;
73170;SDS011;61381;50.118;19.962;2024-03-02T15:21:09;45.10;;;23.75;;
73170;SDS011;61381;50.118;19.962;2024-03-02T15:26:11;45.35;;;24.38;;
73170;SDS011;61381;50.118;19.962;2024-03-02T15:31:12;48.78;;;26.25;;
73170;SDS011;61381;50.118;19.962;2024-03-02T15:36:13;40.00;;;20.92;;
73170;SDS011;61381;50.118;19.962;2024-03-02T15:41:15;49.83;;;25.30;;
73170;SDS011;61381;50.118;19.962;2024-03-02T15:46:16;39.45;;;22.48;;
73170;SDS011;61381;50.118;19.962;2024-03-02T15:51:17;44.58;;;23.30;;
73170;SDS011;61381;50.118;19.962;2024-03-02T15:56:19;50.13;;;26.08;;
73170;SDS011;61381;50.118;19.962;2024-03-02T16:01:20;50.40;;;27.75;;
73170;SDS011;61381;50.118;19.962;2024-03-02T16:06:21;55.90;;;29.80;;
73170;SDS011;61381;50.118;19.962;2024-03-02T16:11:23;46.50;;;24.55;;
73170;SDS011;61381;50.118;19.962;2024-03-02T16:16:24;52.35;;;26.02;;
73170;SDS011;61381;50.118;19.962;2024-03-02T16:21:24;65.70;;;31.45;;
73170;SDS011;61381;50.118;19.962;2024-03-02T16:26:27;61.13;;;28.73;;
73170;SDS011;61381;50.118;19.962;2024-03-02T16:31:27;59.28;;;28.75;;
73170;SDS011;61381;50.118;19.962;2024-03-02T16:36:28;53.35;;;28.33;;
73170;SDS011;61381;50.118;19.962;2024-03-02T16:41:30;60.47;;;28.52;;
73170;SDS011;61381;50.118;19.962;2024-03-02T16:46:31;62.97;;;32.00;;
73170;SDS011;61381;50.118;19.962;2024-03-02T16:51:37;56.47;;;28.05;;
73170;SDS011;61381;50.118;19.962;2024-03-02T16:56:40;51.17;;;27.52;;
73170;SDS011;61381;50.118;19.962;2024-03-02T17:01:42;62.67;;;31.40;;
73170;SDS011;61381;50.118;19.962;2024-03-02T17:06:43;75.07;;;32.97;;
73170;SDS011;61381;50.118;19.962;2024-03-02T17:11:45;65.90;;;31.45;;
73170;SDS011;61381;50.118;19.962;2024-03-02T17:16:46;75.15;;;38.30;;
73170;SDS011;61381;50.118;19.962;2024-03-02T17:21:47;79.88;;;38.00;;
73170;SDS011;61381;50.118;19.962;2024-03-02T17:26:49;154.73;;;68.85;;
73170;SDS011;61381;50.118;19.962;2024-03-02T17:31:50;71.93;;;35.25;;
73170;SDS011;61381;50.118;19.962;2024-03-02T17:36:51;82.70;;;36.40;;
73170;SDS011;61381;50.118;19.962;2024-03-02T17:41:53;80.47;;;36.35;;
73170;SDS011;61381;50.118;19.962;2024-03-02T17:46:54;78.40;;;34.58;;
73170;SDS011;61381;50.118;19.962;2024-03-02T17:51:54;77.35;;;37.78;;
73170;SDS011;61381;50.118;19.962;2024-03-02T17:56:57;72.10;;;35.40;;
73170;SDS011;61381;50.118;19.962;2024-03-02T18:01:58;73.07;;;35.20;;
73170;SDS011;61381;50.118;19.962;2024-03-02T18:06:58;72.32;;;35.10;;
73170;SDS011;61381;50.118;19.962;2024-03-02T18:12:00;83.25;;;37.65;;
73170;SDS011;61381;50.118;19.962;2024-03-02T18:17:01;71.20;;;34.58;;
73170;SDS011;61381;50.118;19.962;2024-03-02T18:22:02;65.38;;;31.05;;
73170;SDS011;61381;50.118;19.962;2024-03-02T18:27:04;70.93;;;33.05;;
73170;SDS011;61381;50.118;19.962;2024-03-02T18:32:06;68.45;;;37.47;;
73170;SDS011;61381;50.118;19.962;2024-03-02T18:37:07;76.22;;;36.60;;
73170;SDS011;61381;50.118;19.962;2024-03-02T18:42:09;68.28;;;31.95;;
73170;SDS011;61381;50.118;19.962;2024-03-02T18:47:10;66.25;;;32.58;;
73170;SDS011;61381;50.118;19.962;2024-03-02T18:52:11;78.07;;;33.40;;
73170;SDS011;61381;50.118;19.962;2024-03-02T18:57:13;61.88;;;30.33;;
73170;SDS011;61381;50.118;19.962;2024-03-02T19:02:14;47.63;;;22.92;;
73170;SDS011;61381;50.118;19.962;2024-03-02T19:07:15;52.25;;;25.25;;
73170;SDS011;61381;50.118;19.962;2024-03-02T19:12:17;46.53;;;23.05;;
73170;SDS011;61381;50.118;19.962;2024-03-02T19:17:18;46.83;;;22.83;;
73170;SDS011;61381;50.118;19.962;2024-03-02T19:22:19;46.58;;;22.40;;
73170;SDS011;61381;50.118;19.962;2024-03-02T19:27:21;42.13;;;21.30;;
73170;SDS011;61381;50.118;19.962;2024-03-02T19:32:22;45.33;;;22.23;;
73170;SDS011;61381;50.118;19.962;2024-03-02T19:37:23;47.85;;;21.73;;
73170;SDS011;61381;50.118;19.962;2024-03-02T19:42:25;49.25;;;23.77;;
73170;SDS011;61381;50.118;19.962;2024-03-02T19:47:26;44.15;;;21.35;;
73170;SDS011;61381;50.118;19.962;2024-03-02T19:52:27;46.60;;;21.52;;
73170;SDS011;61381;50.118;19.962;2024-03-02T19:57:29;45.15;;;22.45;;
73170;SDS011;61381;50.118;19.962;2024-03-02T20:02:30;66.47;;;32.45;;
73170;SDS011;61381;50.118;19.962;2024-03-02T20:07:31;123.78;;;45.03;;
73170;SDS011;61381;50.118;19.962;2024-03-02T20:12:33;124.18;;;48.60;;
73170;SDS011;61381;50.118;19.962;2024-03-02T20:17:36;84.18;;;40.40;;
73170;SDS011;61381;50.118;19.962;2024-03-02T20:22:36;79.45;;;34.65;;
73170;SDS011;61381;50.118;19.962;2024-03-02T20:27:39;75.65;;;36.45;;
73170;SDS011;61381;50.118;19.962;2024-03-02T20:32:39;95.60;;;40.83;;
73170;SDS011;61381;50.118;19.962;2024-03-02T20:37:41;128.80;;;55.38;;
73170;SDS011;61381;50.118;19.962;2024-03-02T20:42:44;139.40;;;51.92;;
73170;SDS011;61381;50.118;19.962;2024-03-02T20:47:45;77.72;;;34.28;;
73170;SDS011;61381;50.118;19.962;2024-03-02T20:52:45;75.00;;;35.25;;
73170;SDS011;61381;50.118;19.962;2024-03-02T20:57:48;65.88;;;30.85;;
73170;SDS011;61381;50.118;19.962;2024-03-02T21:02:48;67.40;;;30.10;;
73170;SDS011;61381;50.118;19.962;2024-03-02T21:07:49;61.67;;;28.30;;
73170;SDS011;61381;50.118;19.962;2024-03-02T21:12:52;57.35;;;27.40;;
73170;SDS011;61381;50.118;19.962;2024-03-02T21:17:52;64.40;;;31.85;;
73170;SDS011;61381;50.118;19.962;2024-03-02T21:22:53;64.97;;;29.85;;
73170;SDS011;61381;50.118;19.962;2024-03-02T21:27:56;76.45;;;34.58;;
73170;SDS011;61381;50.118;19.962;2024-03-02T21:32:56;70.55;;;31.63;;
73170;SDS011;61381;50.118;19.962;2024-03-02T21:37:57;65.53;;;29.38;;
73170;SDS011;61381;50.118;19.962;2024-03-02T21:43:00;61.08;;;28.08;;
73170;SDS011;61381;50.118;19.962;2024-03-02T21:48:00;71.82;;;29.52;;
73170;SDS011;61381;50.118;19.962;2024-03-02T21:53:01;60.95;;;28.63;;
73170;SDS011;61381;50.118;19.962;2024-03-02T21:58:04;62.67;;;28.40;;
73170;SDS011;61381;50.118;19.962;2024-03-02T22:03:04;65.28;;;30.35;;
73170;SDS011;61381;50.118;19.962;2024-03-02T22:08:05;63.17;;;30.02;;
73170;SDS011;61381;50.118;19.962;2024-03-02T22:13:08;65.78;;;27.55;;
73170;SDS011;61381;50.118;19.962;2024-03-02T22:18:09;69.95;;;30.40;;
73170;SDS011;61381;50.118;19.962;2024-03-02T22:23:10;57.58;;;29.20;;
73170;SDS011;61381;50.118;19.962;2024-03-02T22:28:12;64.85;;;30.27;;
73170;SDS011;61381;50.118;19.962;2024-03-02T22:33:13;62.35;;;26.27;;
73170;SDS011;61381;50.118;19.962;2024-03-02T22:38:14;62.45;;;28.35;;
73170;SDS011;61381;50.118;19.962;2024-03-02T22:43:16;62.30;;;28.42;;
73170;SDS011;61381;50.118;19.962;2024-03-02T22:48:17;61.97;;;29.45;;
73170;SDS011;61381;50.118;19.962;2024-03-02T22:53:18;62.33;;;28.88;;
73170;SDS011;61381;50.118;19.962;2024-03-02T22:58:20;69.60;;;30.42;;
73170;SDS011;61381;50.118;19.962;2024-03-02T23:03:21;56.85;;;26.83;;
73170;SDS011;61381;50.118;19.962;2024-03-02T23:08:22;63.50;;;29.35;;
73170;SDS011;61381;50.118;19.962;2024-03-02T23:13:24;59.28;;;26.55;;
73170;SDS011;61381;50.118;19.962;2024-03-02T23:18:25;61.80;;;31.23;;
73170;SDS011;61381;50.118;19.962;2024-03-02T23:23:26;67.47;;;30.58;;
73170;SDS011;61381;50.118;19.962;2024-03-02T23:28:28;65.60;;;30.90;;
73170;SDS011;61381;50.118;19.962;2024-03-02T23:33:29;63.40;;;28.85;;
73170;SDS011;61381;50.118;19.962;2024-03-02T23:38:30;60.40;;;29.00;;
73170;SDS011;61381;50.118;19.962;2024-03-02T23:43:32;59.47;;;28.42;;
73170;SDS011;61381;50.118;19.962;2024-03-02T23:48:33;57.08;;;28.67;;
73170;SDS011;61381;50.118;19.962;2024-03-02T23:53:34;58.58;;;26.88;;
73170;SDS011;61381;50.118;19.962;2024-03-02T23:58:36;65.20;;;30.17;;
